createdAt,value
2022-08-26T00:01:29.207Z,28.69
2022-08-26T00:08:05.591Z,28.79
2022-08-26T00:14:38.095Z,28.8
2022-08-26T00:21:12.046Z,28.81
2022-08-26T00:27:58.210Z,28.76
2022-08-26T00:34:34.217Z,28.75
2022-08-26T00:41:12.490Z,28.74
2022-08-26T00:48:04.735Z,28.83
2022-08-26T00:55:02.226Z,28.74
2022-08-26T01:01:55.201Z,28.71
2022-08-26T01:08:43.419Z,28.7
2022-08-26T01:15:15.249Z,28.73
2022-08-26T01:22:03.750Z,28.75
2022-08-26T01:28:56.199Z,28.7
2022-08-26T01:35:39.287Z,28.73
2022-08-26T01:42:11.776Z,28.65
2022-08-26T01:49:03.201Z,28.69
2022-08-26T01:55:43.307Z,28.71
2022-08-26T02:02:24.792Z,28.72
2022-08-26T02:09:19.630Z,28.7
2022-08-26T02:15:49.206Z,28.72
2022-08-26T02:22:29.701Z,28.7
2022-08-26T02:29:23.289Z,28.69
2022-08-26T02:36:01.392Z,28.68
2022-08-26T02:42:46.716Z,28.69
2022-08-26T02:49:27.704Z,28.65
2022-08-26T02:55:54.300Z,28.62
2022-08-26T03:02:33.493Z,28.61
2022-08-26T03:09:07.839Z,28.61
2022-08-26T03:15:35.562Z,28.57
2022-08-26T03:22:03.247Z,28.7
2022-08-26T03:28:39.547Z,28.78
2022-08-26T03:35:13.573Z,28.91
2022-08-26T03:41:37.590Z,28.64
2022-08-26T03:48:04.213Z,28.77
2022-08-26T03:54:33.201Z,28.81
2022-08-26T04:01:03.210Z,28.83
2022-08-26T04:07:45.350Z,28.87
2022-08-26T04:14:31.566Z,28.38
2022-08-26T04:21:05.283Z,28.15
2022-08-26T04:27:33.689Z,28.11
2022-08-26T04:34:10.955Z,28.16
2022-08-26T04:40:47.901Z,27.95
2022-08-26T04:47:17.346Z,27.88
2022-08-26T04:53:46.355Z,27.79
2022-08-26T05:00:23.233Z,27.7
2022-08-26T05:07:04.956Z,27.63
2022-08-26T05:13:30.096Z,27.58
2022-08-26T05:19:59.406Z,27.53
2022-08-26T05:26:36.887Z,27.56
2022-08-26T05:33:23.426Z,27.47
2022-08-26T05:39:52.624Z,27.47
2022-08-26T05:46:27.918Z,27.47
2022-08-26T05:53:01.471Z,27.52
2022-08-26T05:59:32.484Z,27.62
2022-08-26T06:06:08.388Z,27.5
2022-08-26T06:12:45.405Z,27.48
2022-08-26T06:19:22.797Z,27.42
2022-08-26T06:25:54.394Z,27.4
2022-08-26T06:32:21.674Z,27.34
2022-08-26T06:38:56.936Z,27.33
2022-08-26T06:45:32.234Z,27.26
2022-08-26T06:51:58.985Z,27.28
2022-08-26T06:58:32.433Z,27.23
2022-08-26T07:05:07.541Z,27.39
2022-08-26T07:11:45.287Z,27.5
2022-08-26T07:18:11.465Z,27.37
2022-08-26T07:24:42.816Z,27.34
2022-08-26T07:31:15.498Z,27.39
2022-08-26T07:37:44.347Z,27.35
2022-08-26T07:44:14.316Z,27.5
2022-08-26T07:50:53.401Z,27.34
2022-08-26T07:57:32.293Z,27.31
2022-08-26T08:04:06.755Z,27.2
2022-08-26T08:10:56.325Z,27.15
2022-08-26T08:17:29.341Z,27.21
2022-08-26T08:23:55.379Z,27.14
2022-08-26T08:30:27.510Z,27.14
2022-08-26T08:37:01.427Z,27.15
2022-08-26T08:43:49.462Z,27.09
2022-08-26T08:50:39.996Z,27.14
2022-08-26T08:57:42.556Z,27.14
2022-08-26T09:04:55.798Z,27.12
2022-08-26T09:11:38.442Z,27.06
2022-08-26T09:18:27.522Z,27.04
2022-08-26T09:25:18.658Z,27.02
2022-08-26T09:32:17.492Z,26.97
2022-08-26T09:39:03.943Z,26.99
2022-08-26T09:46:04.489Z,27.06
2022-08-26T09:53:16.962Z,27.1
2022-08-26T10:00:03.709Z,27.11
2022-08-26T10:06:53.904Z,27.17
2022-08-26T10:13:54.576Z,27.26
2022-08-26T10:21:03.700Z,27.2
2022-08-26T10:28:10.709Z,27.07
2022-08-26T10:35:10.426Z,26.96
2022-08-26T10:42:13.804Z,27.08
2022-08-26T10:49:26.591Z,27.05
2022-08-26T10:56:33.130Z,27.01
2022-08-26T11:03:41.397Z,26.94
2022-08-26T11:10:47.632Z,27.02
2022-08-26T11:17:55.936Z,27.13
2022-08-26T11:24:59.675Z,27.07
2022-08-26T11:32:17.193Z,27.1
2022-08-26T11:39:28.061Z,27.22
2022-08-26T11:46:29.760Z,27.12
2022-08-26T11:53:49.563Z,27.22
2022-08-26T12:00:53.107Z,27.21
2022-08-26T12:07:56.883Z,27.03
2022-08-26T12:15:05.588Z,26.98
2022-08-26T12:22:08.472Z,26.96
2022-08-26T12:29:01.536Z,27.15
2022-08-26T12:36:08.009Z,26.97
2022-08-26T12:43:07.777Z,27.05
2022-08-26T12:50:04.056Z,27.06
2022-08-26T12:57:07.876Z,27.28
2022-08-26T13:03:54.390Z,27.51
2022-08-26T13:10:35.962Z,27.44
2022-08-26T13:17:17.165Z,27.51
2022-08-26T13:23:53.602Z,27.51
2022-08-26T13:30:22.615Z,27.44
2022-08-26T13:36:49.092Z,27.45
2022-08-26T13:43:20.546Z,27.5
2022-08-26T13:49:44.053Z,27.5
2022-08-26T13:56:11.164Z,27.46
2022-08-26T14:02:34.621Z,27.5
2022-08-26T14:09:03.673Z,27.56
2022-08-26T14:15:33.668Z,27.54
2022-08-26T14:22:12.204Z,27.61
2022-08-26T14:28:48.686Z,27.59
2022-08-26T14:35:30.384Z,27.61
2022-08-26T14:42:00.962Z,27.59
2022-08-26T14:48:53.620Z,27.61
2022-08-26T14:55:34.460Z,27.66
2022-08-26T15:02:22.343Z,27.65
2022-08-26T15:08:59.654Z,27.74
2022-08-26T15:15:24.194Z,27.68
2022-08-26T15:22:01.128Z,27.7
2022-08-26T15:28:31.674Z,27.75
2022-08-26T15:34:55.680Z,27.71
2022-08-26T15:41:22.521Z,27.71
2022-08-26T15:48:01.041Z,27.76
2022-08-26T15:54:45.967Z,27.74
2022-08-26T16:01:18.104Z,27.75
2022-08-26T16:07:55.777Z,27.78
2022-08-26T16:14:24.686Z,27.78
2022-08-26T16:20:55.439Z,27.77
2022-08-26T16:27:39.596Z,27.81
2022-08-26T16:34:13.629Z,27.8
2022-08-26T16:40:48.692Z,27.78
2022-08-26T16:47:16.677Z,27.79
2022-08-26T16:53:47.572Z,27.77
2022-08-26T17:00:19.676Z,27.79
2022-08-26T17:06:47.132Z,27.79
2022-08-26T17:13:12.625Z,27.77
2022-08-26T17:20:03.768Z,27.84
2022-08-26T17:26:53.506Z,27.8
2022-08-26T17:33:38.058Z,27.79
2022-08-26T17:40:12.158Z,27.81
2022-08-26T17:46:51.802Z,27.81
2022-08-26T17:53:23.803Z,27.81
2022-08-26T17:59:55.839Z,27.81
2022-08-26T18:06:27.727Z,27.8
2022-08-26T18:12:55.791Z,27.83
2022-08-26T18:19:20.923Z,27.79
2022-08-26T18:25:53.737Z,27.83
2022-08-26T18:32:22.212Z,27.85
2022-08-26T18:39:00.756Z,27.87
2022-08-26T18:45:31.736Z,27.88
2022-08-26T18:52:02.581Z,27.84
2022-08-26T18:58:29.745Z,27.87
2022-08-26T19:04:57.831Z,27.85
2022-08-26T19:11:31.151Z,27.88
2022-08-26T19:18:13.995Z,27.91
2022-08-26T19:24:45.941Z,27.87
2022-08-26T19:31:21.349Z,27.86
2022-08-26T19:37:59.809Z,27.96
2022-08-26T19:44:27.047Z,27.96
2022-08-26T19:51:05.842Z,27.92
2022-08-26T19:57:41.811Z,27.94
2022-08-26T20:04:20.117Z,27.88
2022-08-26T20:10:49.847Z,27.84
2022-08-26T20:17:13.778Z,27.79
2022-08-26T20:23:40.259Z,27.76
2022-08-26T20:30:04.890Z,27.76
2022-08-26T20:36:34.735Z,27.76
2022-08-26T20:43:08.717Z,27.76
2022-08-26T20:49:31.795Z,27.73
2022-08-26T20:56:00.135Z,27.74
2022-08-26T21:02:31.799Z,27.75
2022-08-26T21:09:08.886Z,27.76
2022-08-26T21:15:34.775Z,27.77
2022-08-26T21:22:06.095Z,27.72
2022-08-26T21:28:40.260Z,27.71
2022-08-26T21:35:06.068Z,27.7
2022-08-26T21:41:35.198Z,27.67
2022-08-26T21:48:11.868Z,27.68
2022-08-26T21:54:49.874Z,27.68
2022-08-26T22:01:29.370Z,27.66
2022-08-26T22:07:55.717Z,27.7
2022-08-26T22:14:28.474Z,27.8
2022-08-26T22:21:09.844Z,27.74
2022-08-26T22:27:44.892Z,27.88
2022-08-26T22:34:21.859Z,27.9
2022-08-26T22:40:58.892Z,27.91
2022-08-26T22:47:30.054Z,27.85
2022-08-26T22:54:09.739Z,27.88
2022-08-26T23:00:44.110Z,27.91
2022-08-26T23:07:13.825Z,27.93
2022-08-26T23:13:43.238Z,27.89
2022-08-26T23:20:30.787Z,27.87
2022-08-26T23:27:18.659Z,27.83
2022-08-26T23:33:42.938Z,27.84
2022-08-26T23:40:08.387Z,27.87
2022-08-26T23:46:40.448Z,27.84
2022-08-26T23:53:12.895Z,27.83
2022-08-26T23:59:44.986Z,27.82
